Excelsior Springs, Missouri
Current Conditions -  °F | °C
As of 7:55 AM on Monday 24 Nov 2014 (Local Time) from KGPH Reporting Station
Overcast Overcast  
Wind Chill: 24°   Ceiling: 3000
Heat Index: 34°   Visibility: 10mi
Dew Point: 27°   Wind: 14mph
Humidity: 75%   Direction: 270°W
Pressure: 29.65"   Gusts: 21mph
Location:  39.34°N, 94.23°W
Report Text: KGPH 241355Z AUTO 27012G18KT 240V300 10SM OVC030 01/M03 A2965 RMK AO2
Loading
Personal Weather Stations






























Interactive Weather Map New forecast layout! Learn more

10-Day Weather Forecast

Advertisements
Track Severe Weather on mobile